Latest Weather Observations for Tocal

IDN60801

Issued at 10:32 am EST Friday 28 July 2017 (issued every 30 minutes, with the page automatically refreshed every 10 minutes)

About weather observations | Map of weather stations | Latest weather observations for NSW | Other Formats
Station Details ID: 061250 Name: TOCAL AWS Lat: -32.63 Lon: 151.59 Height: 30.0 m
Data from the previous 72 hours. | See also: Recent months at Tocal
Date/Time
EST
Temp
°C
App
Temp
°C
Dew
Point
°C
Rel
Hum
%
Delta-T
°C
Wind Press
QNH
hPa
Press
MSL
hPa
Rain since
9am
mm
Dir  Spd
km/h
Gust
km/h
Spd
kts
Gust
kts
28/10:30am 10.6 8.8 7.0 78 1.7 N 6 7 3 4 - - 0.0
28/10:00am 9.6 8.9 7.1 84 1.2 CALM 0 4 0 2 - - 0.0
28/09:30am 8.7 6.8 6.5 86 1.0 NNW 6 7 3 4 - - 0.0
28/09:00am 8.2 7.3 6.0 86 1.0 CALM 0 0 0 0 - - 0.0
28/08:30am 7.6 6.8 6.3 91 0.6 CALM 0 7 0 4 - - 0.0
28/08:00am 5.9 3.7 5.4 97 0.2 ESE 6 15 3 8 - - 0.0
28/07:30am 3.9 1.4 3.7 99 0.1 NNW 6 9 3 5 - - 0.0
28/07:00am 5.4 4.3 5.2 99 0.1 CALM 0 0 0 0 - - 0.0
28/06:30am 4.9 3.7 4.7 99 0.1 CALM 0 7 0 4 - - 0.0
28/06:00am 4.3 3.0 4.3 100 0.0 CALM 0 0 0 0 - - 0.0
28/05:30am 4.5 2.9 4.5 100 0.0 N 2 7 1 4 - - 0.0
28/05:00am 5.3 3.4 5.1 99 0.1 NNW 4 6 2 3 - - 0.0
28/04:30am 5.7 4.2 5.2 97 0.2 N 2 7 1 4 - - 0.0
28/04:00am 5.7 4.2 5.2 97 0.2 ENE 2 9 1 5 - - 0.0
28/03:30am 5.5 3.2 5.0 97 0.2 WNW 6 7 3 4 - - 0.0
28/03:00am 6.8 5.8 5.7 93 0.5 CALM 0 0 0 0 - - 0.0
28/02:30am 7.1 4.8 5.8 91 0.6 NE 7 9 4 5 - - 0.0
28/02:00am 7.5 6.6 6.0 90 0.7 CALM 0 0 0 0 - - 0.0
28/01:30am 7.7 5.5 6.2 90 0.7 E 7 9 4 5 - - 0.0
28/01:00am 8.5 7.0 7.0 90 0.7 ESE 4 7 2 4 - - 0.0
28/12:30am 8.3 6.8 6.8 90 0.7 E 4 7 2 4 - - 0.0
28/12:00am 9.0 7.9 7.1 88 0.9 E 2 7 1 4 - - 0.0
 
Date/Time
EST
Temp
°C
App
Temp
°C
Dew
Point
°C
Rel
Hum
%
Delta-T
°C
Wind Press
QNH
hPa
Press
MSL
hPa
Rain since
9am
mm
Dir  Spd
km/h
Gust
km/h
Spd
kts
Gust
kts
27/11:30pm 10.0 9.4 7.3 83 1.3 CALM 0 0 0 0 - - 0.0
27/11:00pm 9.8 9.2 7.3 84 1.2 CALM 0 0 0 0 - - 0.0
27/10:30pm 10.0 - 7.3 83 1.3 - - - - - - - 0.0
27/10:00pm 10.3 9.0 7.6 83 1.3 WSW 4 7 2 4 - - 0.0
27/09:30pm 10.0 8.3 7.5 84 1.2 WSW 6 7 3 4 - - 0.0
27/09:00pm 11.6 11.1 7.9 78 1.8 CALM 0 0 0 0 - - 0.0
27/08:30pm 10.7 9.0 8.2 84 1.2 SW 7 9 4 5 - - 0.0
27/08:00pm 9.7 8.1 7.8 88 0.9 W 6 7 3 4 - - 0.0
27/07:30pm 9.5 7.8 7.6 88 0.9 NW 6 7 3 4 - - 0.0
27/07:00pm 11.1 9.5 8.2 82 1.4 WNW 6 7 3 4 - - 0.0
27/06:30pm 12.4 12.1 8.6 77 1.9 CALM 0 0 0 0 - - 0.0
27/06:00pm 12.7 - 8.5 75 2.1 - - - - - - - 0.0
27/05:30pm 14.0 - 8.2 68 2.9 - - - - - - - 0.0
27/05:00pm 14.9 - 7.9 63 3.5 - - - - - - - 0.0
27/04:30pm 16.3 - 7.0 54 4.6 - - - - - - - 0.0
27/04:00pm 16.8 - 7.4 54 4.7 - - - - - - - 0.0
27/03:30pm 17.4 14.4 6.2 47 5.5 E 11 15 6 8 - - 0.0
27/03:00pm 17.4 14.8 6.2 47 5.5 ESE 9 15 5 8 - - 0.0
27/02:30pm 17.7 14.7 5.8 45 5.8 SE 11 15 6 8 - - 0.0
27/02:00pm 18.0 15.2 6.8 48 5.6 SE 11 17 6 9 - - 0.0
27/01:30pm 17.9 15.7 6.4 47 5.7 SSW 7 13 4 7 - - 0.0
27/01:00pm 17.6 15.6 6.2 47 5.6 ENE 6 13 3 7 - - 0.0
27/12:30pm 17.1 14.4 5.8 47 5.5 ESE 9 19 5 10 - - 0.0
27/12:00pm 17.0 14.5 4.8 44 5.8 SE 7 13 4 7 - - 0.0
27/11:30am 16.3 13.4 4.4 45 5.6 ESE 9 13 5 7 - - 0.0
27/11:00am 16.5 14.2 5.5 48 5.3 NNE 7 11 4 6 - - 0.0
27/10:30am 15.7 13.3 5.4 50 4.9 NE 7 11 4 6 - - 0.0
27/10:00am 14.2 11.4 5.0 54 4.3 ENE 9 13 5 7 - - 0.0
27/09:30am 13.1 10.7 5.4 59 3.6 NE 7 9 4 5 - - 0.0
27/09:00am 11.2 8.7 4.8 64 2.9 NE 7 9 4 5 - - 0.0
27/08:30am 9.3 8.1 4.6 72 2.1 CALM 0 4 0 2 - - 0.0
27/08:00am 8.0 6.6 3.8 75 1.8 CALM 0 0 0 0 - - 0.0
27/07:30am 6.5 5.0 3.2 79 1.4 CALM 0 0 0 0 - - 0.0
27/07:00am 5.5 4.0 3.1 84 1.0 CALM 0 0 0 0 - - 0.0
27/06:30am 6.0 4.6 3.4 83 1.1 CALM 0 0 0 0 - - 0.0
27/06:00am 6.3 4.8 3.2 80 1.3 CALM 0 0 0 0 - - 0.0
27/05:30am 6.8 5.3 3.2 78 1.5 CALM 0 0 0 0 - - 0.0
27/05:00am 7.8 6.3 3.1 72 2.0 CALM 0 0 0 0 - - 0.0
27/04:30am 9.4 7.1 2.6 62 2.9 ENE 4 7 2 4 - - 0.0
27/04:00am 8.6 7.0 2.4 65 2.6 CALM 0 0 0 0 - - 0.0
27/03:30am 9.5 7.8 1.8 58 3.2 CALM 0 4 0 2 - - 0.0
27/03:00am 9.7 6.7 2.1 59 3.2 NE 7 9 4 5 - - 0.0
27/02:30am 10.0 8.4 2.5 59 3.2 CALM 0 0 0 0 - - 0.0
27/02:00am 10.4 7.4 2.2 57 3.5 NW 7 9 4 5 - - 0.0
27/01:30am 10.2 8.6 2.2 57 3.4 CALM 0 0 0 0 - - 0.0
27/01:00am 10.8 - 1.5 52 3.9 - - - - - - - 0.0
27/12:30am 11.0 8.2 1.8 53 3.9 N 6 9 3 5 - - 0.0
27/12:00am 11.8 - 2.0 51 4.2 - - - - - - - 0.0
 
Date/Time
EST
Temp
°C
App
Temp
°C
Dew
Point
°C
Rel
Hum
%
Delta-T
°C
Wind Press
QNH
hPa
Press
MSL
hPa
Rain since
9am
mm
Dir  Spd
km/h
Gust
km/h
Spd
kts
Gust
kts
26/11:30pm 11.5 - 1.9 51 4.1 - - - - - - - 0.0
26/11:00pm 10.7 - 2.0 55 3.7 - - - - - - - 0.0
26/10:30pm 12.1 - 0.9 46 4.7 - - - - - - - 0.0
26/10:00pm 12.6 - 1.3 46 4.8 - - - - - - - 0.0
26/09:30pm 12.4 - 2.0 49 4.5 - - - - - - - 0.0
26/09:00pm 15.6 - 0.5 36 6.5 - - - - - - - 0.0
26/08:30pm 16.1 - 1.0 36 6.6 - - - - - - - 0.0
26/08:00pm 16.7 - 0.6 33 7.0 - - - - - - - 0.0
26/07:30pm 17.6 - -0.7 29 7.8 - - - - - - - 0.0
26/07:00pm 17.8 - -0.7 28 7.9 - - - - - - - 0.0
26/06:30pm 18.3 - -1.2 26 8.3 - - - - - - - 0.0
26/06:00pm 18.5 - -0.8 27 8.3 - - - - - - - 0.0
26/05:30pm 19.1 - -1.6 24 8.8 - - - - - - - 0.0
26/05:00pm 20.1 - 1.4 28 8.5 - - - - - - - 0.0
26/04:30pm 21.0 - 2.7 30 8.6 - - - - - - - 0.0
26/04:00pm 22.2 - 1.1 24 9.7 - - - - - - - 0.0
26/03:30pm 22.6 - 1.6 25 9.8 - - - - - - - 0.0
26/03:00pm 22.1 15.9 2.0 26 9.4 WNW 24 - 13 - - - 0.0
26/02:30pm 21.9 16.1 2.3 27 9.2 WNW 22 37 12 20 - - 0.0
26/02:00pm 22.1 14.8 2.4 27 9.3 WNW 30 48 16 26 - - 0.0
26/01:30pm 22.9 15.9 1.8 25 9.9 WNW 28 52 15 28 - - 0.0
26/01:14pm 22.6 14.2 1.6 25 9.8 W 35 54 19 29 - - 0.0
26/01:07pm 22.5 13.3 1.4 25 9.8 W 39 56 21 30 - - 0.0
26/01:00pm 22.6 17.3 1.6 25 9.8 WNW 19 32 10 17 - - 0.0
26/12:30pm 22.4 16.2 1.9 26 9.6 WNW 24 43 13 23 - - 0.0
26/12:00pm 22.1 15.3 0.9 24 9.7 NW 26 52 14 28 - - 0.0
26/11:30am 21.7 13.5 0.5 24 9.6 WNW 33 57 18 31 - - 0.0
26/11:24am 21.4 14.1 0.3 24 9.5 WNW 28 48 15 26 - - 0.0
26/11:00am 21.3 14.9 0.8 25 9.3 WNW 24 41 13 22 - - 0.0
26/10:30am 20.4 14.0 0.9 27 8.8 WNW 24 43 13 23 - - 0.0
26/10:09am 20.2 12.9 -0.2 25 9.0 NW 28 50 15 27 - - 0.0
26/10:00am 20.0 13.1 0.2 26 8.8 NW 26 35 14 19 - - 0.0
26/09:30am 19.3 13.8 0.3 28 8.4 WNW 19 39 10 21 - - 0.0
26/09:00am 18.6 12.2 0.8 30 7.9 WNW 24 37 13 20 - - 0.0
26/08:30am 17.7 12.0 0.3 31 7.6 WNW 20 39 11 21 - - 0.0
26/08:00am 16.5 10.9 1.3 36 6.7 WNW 20 33 11 18 - - 0.0
26/07:30am 15.1 9.5 1.0 38 6.1 NW 20 39 11 21 - - 0.0
26/07:00am 13.9 9.3 1.4 42 5.4 WNW 15 32 8 17 - - 0.0
26/06:30am 8.8 6.3 3.5 69 2.3 E 6 11 3 6 - - 0.0
26/06:00am 8.3 6.4 3.1 70 2.2 SSE 2 9 1 5 - - 0.0
26/05:30am 6.6 4.8 3.3 79 1.4 NNE 2 7 1 4 - - 0.0
26/05:00am 6.1 4.4 4.0 86 0.9 WNW 2 7 1 4 - - 0.0
26/04:30am 7.2 4.6 4.2 81 1.3 S 7 11 4 6 - - 0.0
26/04:00am 6.4 5.1 4.3 86 0.9 CALM 0 0 0 0 - - 0.0
26/03:30am 6.2 3.8 4.3 88 0.8 W 6 7 3 4 - - 0.0
26/03:00am 7.8 6.6 4.4 79 1.5 CALM 0 0 0 0 - - 0.0
26/02:30am 7.5 5.1 4.3 80 1.4 NW 6 7 3 4 - - 0.0
26/02:00am 8.2 6.2 4.3 76 1.7 W 4 7 2 4 - - 0.0
26/01:30am 9.8 8.5 4.1 67 2.5 CALM 0 0 0 0 - - 0.0
26/01:00am 10.2 8.1 4.1 66 2.7 SW 4 7 2 4 - - 0.0
26/12:30am 9.9 8.6 4.3 68 2.5 CALM 0 0 0 0 - - 0.0
26/12:00am 10.9 9.6 4.2 63 3.0 CALM 0 0 0 0 - - 0.0
 
Date/Time
EST
Temp
°C
App
Temp
°C
Dew
Point
°C
Rel
Hum
%
Delta-T
°C
Wind Press
QNH
hPa
Press
MSL
hPa
Rain since
9am
mm
Dir  Spd
km/h
Gust
km/h
Spd
kts
Gust
kts
25/11:30pm 12.0 10.7 4.3 59 3.5 CALM 0 0 0 0 - - 0.0
25/11:00pm 12.8 11.6 4.5 57 3.8 CALM 0 0 0 0 - - 0.0
25/10:30pm 13.4 12.1 4.2 53 4.2 CALM 0 0 0 0 - - 0.0
25/10:00pm 13.5 10.3 3.2 49 4.6 NNW 9 13 5 7 - - 0.0
25/09:30pm 16.2 12.1 2.4 39 6.2 NW 13 20 7 11 - - 0.0
25/09:00pm 16.0 11.9 2.4 40 6.1 NW 13 17 7 9 - - 0.0
25/08:30pm 16.2 12.1 2.4 39 6.2 NW 13 17 7 9 - - 0.0
25/08:00pm 14.1 10.2 3.2 48 4.9 NNW 13 17 7 9 - - 0.0
25/07:30pm 14.1 10.9 2.9 47 5.0 NNW 9 13 5 7 - - 0.0
25/07:00pm 14.7 11.1 2.9 45 5.3 NNW 11 15 6 8 - - 0.0
25/06:30pm 14.4 10.9 3.3 47 5.0 NNW 11 13 6 7 - - 0.0
25/06:00pm 13.7 10.8 4.6 54 4.2 NNW 9 11 5 6 - - 0.0
25/05:30pm 16.2 13.5 3.9 44 5.7 N 7 11 4 6 - - 0.0
25/05:00pm 16.8 13.9 4.5 44 5.8 NNW 9 11 5 6 - - 0.0
25/04:30pm 17.9 14.9 3.9 39 6.6 NNW 9 13 5 7 - - 0.0
25/04:00pm 19.0 15.0 2.9 34 7.5 NW 13 17 7 9 - - 0.0
25/03:30pm 19.0 15.4 2.9 34 7.5 WNW 11 19 6 10 - - 0.0
25/03:00pm 19.1 15.1 2.7 33 7.6 WNW 13 24 7 13 - - 0.0
25/02:30pm 18.8 14.4 2.8 34 7.4 WNW 15 26 8 14 - - 0.0
25/02:00pm 18.6 14.2 2.8 35 7.3 WNW 15 24 8 13 - - 0.0
25/01:30pm 18.9 15.1 3.9 37 7.1 NW 13 19 7 10 - - 0.0
25/01:00pm 18.3 13.9 2.7 35 7.2 WNW 15 26 8 14 - - 0.0
25/12:30pm 17.5 12.8 2.9 37 6.7 W 17 30 9 16 - - 0.0
25/12:00pm 17.6 13.0 3.7 39 6.5 W 17 32 9 17 - - 0.0
25/11:30am 17.1 13.3 4.1 42 6.1 W 13 19 7 10 - - 0.0
25/11:00am 16.7 12.1 3.5 41 6.1 W 17 28 9 15 - - 0.0

Other Formats:

Comma delimited format used in spreadsheet applications
http://www.bom.gov.au/fwo/IDN60801/IDN60801.94775.axf

JavaScript Object Notation format (JSON) in row-major order
http://www.bom.gov.au/fwo/IDN60801/IDN60801.94775.json